Latest Coastal Weather Observations for Yeppoon

IDQ60701

Issued at 12:55 pm EST Monday 21 April 2014 (issued every 10 minutes, with the page automatically refreshed every 10 minutes)

About coastal observations | Map of coastal stations | Coastal observations for QLD | Marine services | Other Formats
Station Details ID: 033294 Name: YEPPOON THE ESPLANADE Lat: -23.14 Lon: 150.75 Height: 5.5 m
Data from the previous 72 hours. | See also: Recent months at Yeppoon
Date/Time
EST
Temp

°C
Wind Pressure Rain
since 9am
mm
Weather Cloud Vis
km
Sea
Height
m
Swell
Dir
 
Speed
knots
Gust
knots
hPa Trend Height
m
Period
s
Dir
21/12:30pm 27.2 ENE 8 11 1018.7 - 0.0 - - - - - - -
21/12:00pm 27.1 ENE 8 10 1018.9 - 0.0 - - - - - - -
21/11:30am 27.1 E 8 11 1019.4 - 0.0 - - - - - - -
21/11:00am 26.9 ENE 9 13 1019.8 - 0.0 - - - - - - -
21/10:30am 26.9 E 9 12 1020.0 - 0.0 - - - - - - -
21/10:00am 26.8 ENE 9 12 1020.0 - 0.0 - - - - - - -
21/09:30am 26.5 ENE 9 13 1019.9 - 0.0 - - - - - - -
21/09:00am 26.2 E 8 12 1019.9 - 0.0 - - - - - - -
21/08:30am 25.7 ENE 8 11 1019.8 - 0.0 - - - - - - -
21/08:00am 22.1 CALM 0 2 1019.7 - 0.0 - - - - - - -
21/07:30am 19.3 W 5 7 1019.5 - 0.0 - - - - - - -
21/07:00am 17.5 W 6 8 1019.2 - 0.0 - - - - - - -
21/06:30am 16.7 W 7 8 1019.0 - 0.0 - - - - - - -
21/06:00am 16.9 W 6 8 1018.6 - 0.0 - - - - - - -
21/05:30am 17.2 W 6 7 1018.4 - 0.0 - - - - - - -
21/05:00am 17.2 W 6 7 1018.1 - 0.0 - - - - - - -
21/04:30am 17.3 W 6 8 1017.9 - 0.0 - - - - - - -
21/04:00am 17.1 W 6 8 1017.7 - 0.0 - - - - - - -
21/03:30am 17.3 W 7 8 1017.6 - 0.0 - - - - - - -
21/03:00am 18.3 W 6 7 1017.5 - 0.0 - - - - - - -
21/02:30am 19.5 WNW 4 5 1017.5 - 0.0 - - - - - - -
21/02:00am 24.5 NE 9 12 1017.4 - 0.0 - - - - - - -
21/01:30am 24.6 NE 10 13 1017.4 - 0.0 - - - - - - -
21/01:00am 24.7 NNE 10 14 1017.6 - 0.0 - - - - - - -
21/12:30am 24.7 NNE 10 14 1017.8 - 0.0 - - - - - - -
21/12:00am 24.7 NE 10 13 1017.8 - 0.0 - - - - - - -
 
Date/Time
EST
Temp

°C
Wind Pressure Rain
since 9am
mm
Weather Cloud Vis
km
Sea
Height
m
Swell
Dir
 
Speed
knots
Gust
knots
hPa Trend Height
m
Period
s
Dir
20/11:30pm 24.8 NE 10 12 1018.1 - 0.0 - - - - - - -
20/11:00pm 24.9 NE 10 12 1018.1 - 0.0 - - - - - - -
20/10:30pm 24.9 NE 9 12 1018.2 - 0.0 - - - - - - -
20/10:00pm 24.9 NE 9 12 1018.2 - 0.0 - - - - - - -
20/09:30pm 24.9 NE 9 13 1018.2 - 0.0 - - - - - - -
20/09:00pm 24.9 NE 8 11 1018.3 - 0.0 - - - - - - -
20/08:30pm 24.7 NE 8 10 1018.3 - 0.0 - - - - - - -
20/08:00pm 24.7 NNE 7 9 1018.0 - 0.0 - - - - - - -
20/07:30pm 24.7 NE 8 11 1017.6 - 0.0 - - - - - - -
20/07:00pm 24.6 NNE 7 10 1017.3 - 0.0 - - - - - - -
20/06:30pm 24.8 NE 8 10 1016.9 - 0.0 - - - - - - -
20/06:00pm 24.7 NE 8 11 1016.6 - 0.0 - - - - - - -
20/05:30pm 24.8 NE 8 11 1016.3 - 0.0 - - - - - - -
20/05:00pm 25.3 NE 8 10 1016.2 - 0.0 - - - - - - -
20/04:30pm 25.5 NNE 8 11 1016.0 - 0.0 - - - - - - -
20/04:00pm 25.7 NNE 7 10 1015.9 - 0.0 - - - - - - -
20/03:30pm 26.0 NE 7 9 1015.8 - 0.0 - - - - - - -
20/03:00pm 26.4 NE 6 8 1015.6 - 0.0 - - - - - - -
20/02:30pm 26.7 NE 5 7 1015.6 - 0.0 - - - - - - -
20/02:00pm 26.2 NE 5 7 1015.8 - 0.0 - - - - - - -
20/01:30pm 26.4 NE 4 6 1015.9 - 0.0 - - - - - - -
20/01:00pm 26.7 ENE 5 7 1016.2 - 0.0 - - - - - - -
20/12:30pm 26.5 ENE 5 7 1016.4 - 0.0 - - - - - - -
20/12:00pm 26.7 E 5 7 1016.8 - 0.0 - - - - - - -
20/11:30am 26.9 E 5 7 1017.3 - 0.0 - - - - - - -
20/11:00am 26.7 ENE 4 6 1017.7 - 0.0 - - - - - - -
20/10:30am 26.5 ENE 4 5 1018.0 - 0.0 - - - - - - -
20/10:00am 26.3 ENE 4 5 1018.1 - 0.0 - - - - - - -
20/09:30am 25.9 E 5 6 1018.1 - 0.0 - - - - - - -
20/09:00am 24.8 ESE 4 6 1017.9 - 0.2 - - - - - - -
20/08:30am 23.1 SW 1 3 1017.6 - 0.2 - - - - - - -
20/08:00am 21.2 W 3 5 1017.4 - 0.2 - - - - - - -
20/07:30am 19.4 W 4 5 1017.2 - 0.2 - - - - - - -
20/07:00am 17.6 W 6 7 1016.9 - 0.2 - - - - - - -
20/06:30am 17.1 W 6 7 1016.5 - 0.2 - - - - - - -
20/06:00am 17.1 W 5 6 1016.3 - 0.2 - - - - - - -
20/05:30am 17.4 W 5 7 1015.9 - 0.2 - - - - - - -
20/05:00am 17.4 W 6 7 1015.7 - 0.2 - - - - - - -
20/04:30am 17.3 WSW 4 5 1015.5 - 0.2 - - - - - - -
20/04:00am 17.9 W 3 5 1015.2 - 0.2 - - - - - - -
20/03:30am 18.1 W 4 5 1015.1 - 0.2 - - - - - - -
20/03:00am 18.3 W 5 7 1015.3 - 0.2 - - - - - - -
20/02:30am 18.3 W 5 7 1015.2 - 0.2 - - - - - - -
20/02:00am 18.3 W 6 8 1015.2 - 0.2 - - - - - - -
20/01:30am 18.8 W 6 7 1015.3 - 0.2 - - - - - - -
20/01:00am 19.3 SW 3 5 1015.4 - 0.2 - - - - - - -
20/12:30am 19.1 W 5 7 1015.5 - 0.2 - - - - - - -
20/12:00am 19.2 W 3 5 1015.7 - 0.2 - - - - - - -
 
Date/Time
EST
Temp

°C
Wind Pressure Rain
since 9am
mm
Weather Cloud Vis
km
Sea
Height
m
Swell
Dir
 
Speed
knots
Gust
knots
hPa Trend Height
m
Period
s
Dir
19/11:30pm 19.6 CALM 0 3 1015.8 - 0.2 - - - - - - -
19/11:00pm 20.1 NW 1 4 1015.9 - 0.2 - - - - - - -
19/10:30pm 20.2 WNW 4 5 1016.1 - 0.2 - - - - - - -
19/10:00pm 20.6 W 2 4 1016.3 - 0.2 - - - - - - -
19/09:30pm 21.9 WNW 3 5 1016.4 - 0.2 - - - - - - -
19/09:00pm 23.3 N 5 7 1016.3 - 0.2 - - - - - - -
19/08:30pm 23.5 N 6 8 1016.2 - 0.2 - - - - - - -
19/08:00pm 23.5 N 8 9 1015.9 - 0.2 - - - - - - -
19/07:30pm 23.5 N 8 10 1015.6 - 0.2 - - - - - - -
19/07:00pm 23.8 N 8 10 1015.3 - 0.2 - - - - - - -
19/06:30pm 24.1 N 10 12 1014.9 - 0.2 - - - - - - -
19/06:00pm 24.5 N 9 12 1014.5 - 0.2 - - - - - - -
19/05:30pm 25.2 NNE 10 13 1014.3 - 0.2 - - - - - - -
19/05:00pm 25.7 NE 7 8 1014.2 - 0.2 - - - - - - -
19/04:30pm 25.9 ENE 5 7 1014.0 - 0.2 - - - - - - -
19/04:00pm 26.2 ENE 5 7 1013.8 - 0.2 - - - - - - -
19/03:30pm 26.4 E 6 9 1013.9 - 0.2 - - - - - - -
19/03:00pm 26.8 E 7 9 1014.0 - 0.2 - - - - - - -
19/02:30pm 26.9 E 8 9 1014.1 - 0.2 - - - - - - -
19/02:00pm 26.9 E 7 9 1014.3 - 0.2 - - - - - - -
19/01:30pm 26.7 E 8 10 1014.7 - 0.2 - - - - - - -
19/01:00pm 26.6 E 7 9 1015.1 - 0.2 - - - - - - -
19/12:30pm 26.4 E 9 11 1015.4 - 0.2 - - - - - - -
19/12:00pm 26.2 E 8 10 1015.8 - 0.2 - - - - - - -
19/11:30am 26.4 W 6 8 1016.3 - 0.2 - - - - - - -
19/11:00am 27.1 W 5 9 1016.8 - 0.2 - - - - - - -
19/10:30am 26.0 WSW 5 9 1017.2 - 0.0 - - - - - - -
19/10:00am 25.6 WSW 6 10 1017.3 - 0.0 - - - - - - -
19/09:30am 24.9 W 6 10 1017.5 - 0.0 - - - - - - -
19/09:00am 24.0 W 5 8 1017.7 - 0.0 - - - - - - -
19/08:30am 22.6 W 6 8 1017.6 - 0.0 - - - - - - -
19/08:00am 21.7 WNW 6 8 1017.5 - 0.0 - - - - - - -
19/07:30am 20.1 W 6 7 1017.4 - 0.0 - - - - - - -
19/07:00am 18.7 W 6 7 1017.2 - 0.0 - - - - - - -
19/06:30am 17.8 W 6 7 1016.9 - 0.0 - - - - - - -
19/06:00am 17.8 W 6 7 1016.6 - 0.0 - - - - - - -
19/05:30am 18.0 W 7 8 1016.5 - 0.0 - - - - - - -
19/05:00am 17.6 W 7 9 1016.3 - 0.0 - - - - - - -
19/04:30am 17.5 W 7 8 1016.0 - 0.0 - - - - - - -
19/04:00am 17.6 WNW 7 8 1016.1 - 0.0 - - - - - - -
19/03:30am 17.9 W 6 7 1016.1 - 0.0 - - - - - - -
19/03:00am 18.0 W 6 7 1016.1 - 0.0 - - - - - - -
19/02:30am 18.2 W 5 7 1016.2 - 0.0 - - - - - - -
19/02:00am 18.4 W 5 6 1016.2 - 0.0 - - - - - - -
19/01:30am 19.1 W 4 6 1016.3 - 0.0 - - - - - - -
19/01:00am 19.3 W 6 8 1016.3 - 0.0 - - - - - - -
19/12:30am 19.3 W 6 7 1016.6 - 0.0 - - - - - - -
19/12:00am 19.6 WSW 4 5 1016.6 - 0.0 - - - - - - -
 
Date/Time
EST
Temp

°C
Wind Pressure Rain
since 9am
mm
Weather Cloud Vis
km
Sea
Height
m
Swell
Dir
 
Speed
knots
Gust
knots
hPa Trend Height
m
Period
s
Dir
18/11:30pm 19.8 W 4 6 1016.6 - 0.0 - - - - - - -
18/11:00pm 20.2 WSW 2 4 1016.7 - 0.0 - - - - - - -
18/10:30pm 20.3 W 3 5 1016.7 - 0.0 - - - - - - -
18/10:00pm 20.5 CALM 0 5 1016.7 - 0.0 - - - - - - -
18/09:30pm 21.0 W 2 4 1016.8 - 0.0 - - - - - - -
18/09:00pm 21.3 W 3 4 1016.8 - 0.0 - - - - - - -
18/08:30pm 22.2 WSW 1 3 1016.6 - 0.0 - - - - - - -
18/08:00pm 22.9 WNW 1 3 1016.3 - 0.0 - - - - - - -
18/07:30pm 24.1 N 6 8 1016.0 - 0.0 - - - - - - -
18/07:00pm 24.1 N 7 10 1015.6 - 0.0 - - - - - - -
18/06:30pm 24.1 N 7 8 1015.2 - 0.0 - - - - - - -
18/06:00pm 24.5 N 8 10 1015.0 - 0.0 - - - - - - -
18/05:30pm 24.9 N 11 13 1014.5 - 0.0 - - - - - - -
18/05:00pm 25.3 N 13 15 1014.3 - 0.0 - - - - - - -
18/04:30pm 25.6 NNE 11 13 1013.9 - 0.0 - - - - - - -
18/04:00pm 25.9 NNE 9 11 1013.5 - 0.0 - - - - - - -
18/03:30pm 26.3 NNE 8 9 1013.3 - 0.0 - - - - - - -
18/03:00pm 26.4 NNE 8 10 1013.3 - 0.0 - - - - - - -
18/02:30pm 26.2 NE 8 9 1013.5 - 0.0 - - - - - - -
18/02:00pm 26.8 NE 6 8 1013.9 - 0.0 - - - - - - -
18/01:30pm 27.0 NE 6 8 1014.2 - 0.0 - - - - - - -
18/01:00pm 27.2 ENE 4 6 1014.5 - 0.0 - - - - - - -

Other Formats:

Comma delimited format used in spreadsheet applications
http://www.bom.gov.au/fwo/IDQ60701/IDQ60701.94373.axf

JavaScript Object Notation format (JSON) in row-major order
http://www.bom.gov.au/fwo/IDQ60701/IDQ60701.94373.json